createdAt,value
2018-06-03T00:03:53.111Z,4.10
2018-06-03T00:09:21.265Z,4.40
2018-06-03T00:14:52.163Z,4.20
2018-06-03T00:20:38.201Z,3.90
2018-06-03T00:26:06.341Z,4.00
2018-06-03T00:31:34.497Z,4.57
2018-06-03T00:37:02.636Z,4.07
2018-06-03T00:42:32.492Z,4.10
2018-06-03T00:48:00.631Z,3.97
2018-06-03T00:53:30.013Z,4.10
2018-06-03T00:58:58.152Z,4.33
2018-06-03T01:04:26.304Z,4.73
2018-06-03T01:09:55.208Z,4.30
2018-06-03T01:15:23.359Z,3.40
2018-06-03T01:20:52.269Z,3.83
2018-06-03T01:26:20.418Z,3.70
2018-06-03T01:31:49.315Z,3.93
2018-06-03T01:37:17.460Z,3.93
2018-06-03T01:42:45.623Z,4.60
2018-06-03T01:48:13.802Z,3.53
2018-06-03T01:53:41.957Z,4.37
2018-06-03T01:59:10.200Z,4.23
2018-06-03T02:04:38.471Z,4.17
2018-06-03T02:10:07.383Z,3.83
2018-06-03T02:15:36.458Z,3.77
2018-06-03T02:21:05.357Z,3.77
2018-06-03T02:26:33.541Z,3.60
2018-06-03T02:32:01.672Z,3.73
2018-06-03T02:37:29.823Z,3.40
2018-06-03T02:42:57.994Z,3.17
2018-06-03T02:48:26.142Z,3.80
2018-06-03T02:53:54.318Z,4.13
2018-06-03T02:59:23.220Z,3.17
2018-06-03T03:04:51.385Z,3.70
2018-06-03T03:10:19.571Z,3.43
2018-06-03T03:15:47.718Z,3.70
2018-06-03T03:21:16.644Z,3.43
2018-06-03T03:26:45.565Z,3.60
2018-06-03T03:32:13.808Z,3.97
2018-06-03T03:37:42.761Z,4.10
2018-06-03T03:43:10.921Z,4.27
2018-06-03T03:48:39.087Z,3.77
2018-06-03T03:54:08.049Z,4.00
2018-06-03T03:59:36.187Z,4.27
2018-06-03T04:05:04.365Z,3.60
2018-06-03T04:10:33.268Z,4.50
2018-06-03T04:16:01.405Z,3.40
2018-06-03T04:21:29.557Z,3.83
2018-06-03T04:26:57.745Z,3.97
2018-06-03T04:32:25.887Z,3.73
2018-06-03T04:38:37.037Z,3.60
2018-06-03T04:44:06.431Z,3.35
2018-06-03T04:49:35.624Z,3.27
2018-06-03T04:55:05.082Z,3.55
2018-06-03T05:00:34.355Z,3.40
2018-06-03T05:06:03.552Z,3.60
2018-06-03T05:11:32.793Z,3.42
2018-06-03T05:17:01.986Z,3.22
2018-06-03T05:22:31.264Z,2.90
2018-06-03T05:28:00.597Z,2.87
2018-06-03T05:33:29.780Z,2.22
2018-06-03T05:39:00.279Z,3.00
2018-06-03T05:44:29.483Z,3.15
2018-06-03T05:49:59.051Z,3.27
2018-06-03T05:55:29.375Z,2.70
2018-06-03T06:00:58.701Z,2.45
2018-06-03T06:06:28.117Z,2.85
2018-06-03T06:11:57.370Z,2.60
2018-06-03T06:17:26.795Z,2.90
2018-06-03T06:22:56.980Z,3.05
2018-06-03T06:28:26.495Z,2.67
2018-06-03T06:33:55.823Z,4.50
2018-06-03T06:39:25.029Z,2.65
2018-06-03T06:44:54.338Z,2.92
2018-06-03T06:50:23.552Z,3.27
2018-06-03T06:55:52.864Z,2.67
2018-06-03T07:01:22.217Z,2.40
2018-06-03T07:06:51.945Z,2.85
2018-06-03T07:12:22.005Z,2.65
2018-06-03T07:17:51.442Z,3.80
2018-06-03T07:23:23.463Z,2.85
2018-06-03T07:28:52.719Z,2.60
2018-06-03T07:34:22.962Z,2.80
2018-06-03T07:39:52.151Z,3.35
2018-06-03T07:45:21.480Z,2.92
2018-06-03T07:50:50.676Z,3.00
2018-06-03T07:56:19.915Z,3.22
2018-06-03T08:01:49.260Z,3.77
2018-06-03T08:07:18.672Z,2.77
2018-06-03T08:12:47.933Z,3.47
2018-06-03T08:18:17.319Z,3.20
2018-06-03T08:23:46.624Z,3.40
2018-06-03T08:29:16.655Z,3.65
2018-06-03T08:34:46.145Z,3.62
2018-06-03T08:40:16.129Z,4.10
2018-06-03T08:45:46.391Z,3.30
2018-06-03T08:51:16.017Z,3.80
2018-06-03T08:56:45.509Z,5.28
2018-06-03T09:02:15.168Z,3.17
2018-06-03T09:07:47.724Z,3.30
2018-06-03T09:13:19.155Z,3.00
2018-06-03T09:18:48.502Z,3.17
2018-06-03T09:24:17.911Z,2.95
2018-06-03T09:29:47.276Z,2.65
2018-06-03T09:35:16.526Z,2.98
2018-06-03T09:41:16.983Z,3.37
2018-06-03T09:46:46.386Z,3.05
2018-06-03T09:52:15.977Z,2.40
2018-06-03T09:57:45.265Z,2.45
2018-06-03T10:03:14.731Z,3.27
2018-06-03T10:08:44.092Z,5.70
2018-06-03T10:14:13.519Z,4.33
2018-06-03T10:19:42.981Z,3.10
2018-06-03T10:25:12.389Z,2.40
2018-06-03T10:30:41.941Z,3.50
2018-06-03T10:36:11.394Z,2.33
2018-06-03T10:41:41.181Z,2.87
2018-06-03T10:47:12.959Z,2.10
2018-06-03T10:52:42.511Z,2.45
2018-06-03T10:58:11.957Z,2.55
2018-06-03T11:03:41.558Z,2.80
2018-06-03T11:09:11.292Z,2.58
2018-06-03T11:14:40.645Z,2.70
2018-06-03T11:20:12.933Z,2.80
2018-06-03T11:25:42.854Z,2.55
2018-06-03T11:31:12.259Z,2.65
2018-06-03T11:36:41.518Z,2.92
2018-06-03T11:42:11.208Z,2.52
2018-06-03T11:47:40.621Z,2.20
2018-06-03T11:53:10.037Z,2.90
2018-06-03T11:58:56.444Z,2.42
2018-06-03T12:04:25.665Z,2.50
2018-06-03T12:09:54.860Z,2.02
2018-06-03T12:15:24.213Z,2.17
2018-06-03T12:20:53.416Z,2.30
2018-06-03T12:26:22.601Z,2.45
2018-06-03T12:31:51.902Z,1.95
2018-06-03T12:37:21.119Z,2.27
2018-06-03T12:42:50.468Z,1.98
2018-06-03T12:48:19.786Z,2.15
2018-06-03T12:53:49.153Z,1.77
2018-06-03T12:59:18.612Z,1.95
2018-06-03T13:04:47.996Z,1.90
2018-06-03T13:10:17.449Z,1.80
2018-06-03T13:15:46.869Z,1.90
2018-06-03T13:21:16.263Z,3.40
2018-06-03T13:26:45.588Z,1.82
2018-06-03T13:32:15.058Z,2.45
2018-06-03T13:37:44.375Z,2.05
2018-06-03T13:43:13.871Z,1.70
2018-06-03T13:48:44.203Z,2.08
2018-06-03T13:54:13.563Z,2.12
2018-06-03T13:59:42.889Z,1.80
2018-06-03T14:05:12.347Z,1.70
2018-06-03T14:10:41.831Z,1.87
2018-06-03T14:16:12.943Z,2.20
2018-06-03T14:21:42.248Z,1.75
2018-06-03T14:27:11.622Z,1.95
2018-06-03T14:32:41.095Z,2.00
2018-06-03T14:38:11.840Z,1.65
2018-06-03T14:44:42.997Z,1.82
2018-06-03T14:50:13.126Z,1.50
2018-06-03T14:55:43.096Z,1.75
2018-06-03T15:01:12.721Z,1.72
2018-06-03T15:06:42.923Z,1.77
2018-06-03T15:12:12.413Z,1.75
2018-06-03T15:17:43.078Z,1.98
2018-06-03T15:23:14.230Z,1.60
2018-06-03T15:28:43.876Z,1.52
2018-06-03T15:34:13.354Z,1.82
2018-06-03T15:39:43.007Z,2.02
2018-06-03T15:45:16.567Z,1.60
2018-06-03T15:50:51.900Z,1.62
2018-06-03T15:56:22.378Z,1.40
2018-06-03T16:01:51.716Z,2.17
2018-06-03T16:07:21.060Z,1.95
2018-06-03T16:12:50.353Z,1.87
2018-06-03T16:18:19.704Z,2.37
2018-06-03T16:23:49.341Z,2.47
2018-06-03T16:29:18.674Z,1.65
2018-06-03T16:34:48.025Z,2.27
2018-06-03T16:40:17.399Z,2.37
2018-06-03T16:45:48.064Z,2.35
2018-06-03T16:51:18.440Z,2.22
2018-06-03T16:56:47.993Z,2.42
2018-06-03T17:02:17.366Z,2.37
2018-06-03T17:07:47.125Z,2.02
2018-06-03T17:13:16.569Z,2.60
2018-06-03T17:18:45.974Z,2.72
2018-06-03T17:24:16.693Z,2.25
2018-06-03T17:29:46.132Z,2.30
2018-06-03T17:35:15.977Z,2.30
2018-06-03T17:40:45.793Z,2.50
2018-06-03T17:46:17.726Z,2.00
2018-06-03T17:51:47.662Z,2.30
2018-06-03T17:57:17.103Z,2.25
2018-06-03T18:02:46.592Z,2.10
2018-06-03T18:08:20.934Z,2.67
2018-06-03T18:13:50.865Z,3.00
2018-06-03T18:19:22.131Z,2.27
2018-06-03T18:24:51.665Z,2.60
2018-06-03T18:30:24.105Z,2.58
2018-06-03T18:35:53.659Z,2.55
2018-06-03T18:41:23.225Z,2.27
2018-06-03T18:46:52.821Z,2.50
2018-06-03T18:52:23.153Z,2.37
2018-06-03T18:57:52.780Z,2.35
2018-06-03T19:03:22.149Z,2.45
2018-06-03T19:08:51.945Z,2.67
2018-06-03T19:14:21.387Z,3.62
2018-06-03T19:19:51.111Z,3.08
2018-06-03T19:25:20.490Z,3.85
2018-06-03T19:30:51.229Z,2.92
2018-06-03T19:36:21.077Z,3.22
2018-06-03T19:41:50.527Z,3.45
2018-06-03T19:47:19.920Z,3.10
2018-06-03T19:52:49.377Z,3.17
2018-06-03T19:58:18.765Z,3.12
2018-06-03T20:03:48.113Z,3.17
2018-06-03T20:09:17.475Z,3.17
2018-06-03T20:14:46.801Z,3.27
2018-06-03T20:20:16.140Z,3.15
2018-06-03T20:25:45.611Z,3.80
2018-06-03T20:31:15.746Z,3.90
2018-06-03T20:36:46.207Z,4.22
2018-06-03T20:42:15.515Z,3.65
2018-06-03T20:47:45.305Z,3.70
2018-06-03T20:53:15.172Z,3.60
2018-06-03T20:58:44.856Z,3.70
2018-06-03T21:04:14.168Z,4.05
2018-06-03T21:09:43.595Z,8.83
2018-06-03T21:15:13.214Z,7.40
2018-06-03T21:20:42.731Z,3.70
2018-06-03T21:26:12.204Z,3.98
2018-06-03T21:31:41.739Z,3.58
2018-06-03T21:37:11.069Z,4.15
2018-06-03T21:42:40.102Z,4.20
2018-06-03T21:48:09.468Z,3.90
2018-06-03T21:53:38.816Z,4.75
2018-06-03T21:59:08.252Z,4.45
2018-06-03T22:04:37.577Z,4.55
2018-06-03T22:10:06.807Z,4.40
2018-06-03T22:15:36.248Z,4.22
2018-06-03T22:21:05.462Z,5.05
2018-06-03T22:26:34.749Z,5.70
2018-06-03T22:32:04.061Z,5.47
2018-06-03T22:37:33.274Z,6.67
2018-06-03T22:43:02.520Z,5.33
2018-06-03T22:48:31.727Z,5.58
2018-06-03T22:54:01.945Z,5.83
2018-06-03T22:59:31.154Z,5.47
2018-06-03T23:05:00.376Z,5.92
2018-06-03T23:10:29.598Z,5.17
2018-06-03T23:15:58.897Z,5.08
2018-06-03T23:21:28.076Z,5.83
2018-06-03T23:26:57.288Z,5.40
2018-06-03T23:32:26.585Z,5.78
2018-06-03T23:37:56.824Z,5.20
2018-06-03T23:43:26.105Z,4.97
2018-06-03T23:48:55.356Z,5.37
2018-06-03T23:54:24.553Z,4.90
2018-06-03T23:59:53.818Z,5.05
